createdAt,value
2017-07-18T00:01:47.969Z,17.70
2017-07-18T00:04:16.378Z,17.70
2017-07-18T00:06:44.917Z,17.70
2017-07-18T00:09:13.634Z,17.70
2017-07-18T00:11:41.861Z,17.60
2017-07-18T00:14:10.071Z,17.60
2017-07-18T00:16:39.202Z,17.60
2017-07-18T00:19:07.433Z,17.60
2017-07-18T00:21:35.646Z,17.50
2017-07-18T00:24:03.972Z,17.50
2017-07-18T00:26:32.176Z,17.50
2017-07-18T00:29:01.222Z,17.50
2017-07-18T00:31:29.437Z,17.50
2017-07-18T00:33:57.677Z,17.50
2017-07-18T00:36:25.912Z,17.50
2017-07-18T00:38:54.160Z,17.50
2017-07-18T00:41:22.430Z,17.40
2017-07-18T00:43:51.511Z,17.40
2017-07-18T00:46:19.838Z,17.40
2017-07-18T00:48:48.163Z,17.40
2017-07-18T00:51:16.607Z,17.30
2017-07-18T00:53:44.978Z,17.30
2017-07-18T00:56:13.239Z,17.30
2017-07-18T00:58:41.486Z,17.20
2017-07-18T01:01:09.752Z,17.20
2017-07-18T01:03:37.971Z,17.20
2017-07-18T01:06:06.200Z,17.10
2017-07-18T01:08:34.464Z,17.10
2017-07-18T01:11:03.021Z,17.10
2017-07-18T01:13:31.244Z,17.00
2017-07-18T01:15:59.456Z,17.00
2017-07-18T01:18:27.691Z,17.00
2017-07-18T01:20:55.919Z,17.00
2017-07-18T01:23:24.943Z,17.00
2017-07-18T01:25:53.228Z,16.90
2017-07-18T01:28:21.614Z,16.90
2017-07-18T01:30:49.845Z,17.00
2017-07-18T01:33:19.026Z,16.90
2017-07-18T01:35:47.256Z,16.90
2017-07-18T01:38:15.501Z,17.00
2017-07-18T01:40:43.710Z,16.90
2017-07-18T01:43:11.961Z,16.90
2017-07-18T01:45:40.185Z,16.90
2017-07-18T01:48:08.429Z,16.90
2017-07-18T01:50:36.646Z,16.90
2017-07-18T01:53:05.023Z,16.90
2017-07-18T01:55:33.244Z,16.90
2017-07-18T01:58:01.464Z,16.80
2017-07-18T02:00:29.675Z,16.80
2017-07-18T02:02:58.121Z,16.80
2017-07-18T02:05:26.481Z,16.70
2017-07-18T02:07:54.744Z,16.80
2017-07-18T02:10:23.133Z,16.80
2017-07-18T02:12:51.373Z,16.70
2017-07-18T02:15:19.689Z,16.70
2017-07-18T02:17:47.907Z,16.60
2017-07-18T02:20:16.159Z,16.60
2017-07-18T02:22:44.508Z,16.50
2017-07-18T02:25:13.529Z,16.50
2017-07-18T02:27:42.611Z,16.50
2017-07-18T02:30:10.885Z,16.50
2017-07-18T02:32:39.273Z,16.50
2017-07-18T02:35:08.014Z,16.60
2017-07-18T02:37:36.417Z,16.50
2017-07-18T02:40:04.667Z,16.60
2017-07-18T02:42:32.991Z,16.50
2017-07-18T02:45:01.268Z,16.50
2017-07-18T02:47:29.534Z,16.50
2017-07-18T02:49:57.805Z,16.50
2017-07-18T02:52:26.339Z,16.60
2017-07-18T02:54:54.782Z,16.50
2017-07-18T02:57:23.006Z,16.50
2017-07-18T02:59:51.361Z,16.60
2017-07-18T03:02:19.586Z,16.60
2017-07-18T03:04:47.893Z,16.60
2017-07-18T03:07:16.152Z,16.60
2017-07-18T03:09:45.158Z,16.60
2017-07-18T03:12:13.377Z,16.60
2017-07-18T03:14:41.619Z,16.50
2017-07-18T03:17:09.826Z,16.50
2017-07-18T03:19:38.058Z,16.60
2017-07-18T03:22:06.313Z,16.50
2017-07-18T03:24:35.474Z,16.50
2017-07-18T03:27:03.708Z,16.60
2017-07-18T03:29:32.031Z,16.50
2017-07-18T03:32:00.256Z,16.50
2017-07-18T03:34:28.638Z,16.50
2017-07-18T03:36:56.910Z,16.50
2017-07-18T03:39:25.887Z,16.60
2017-07-18T03:41:54.142Z,16.60
2017-07-18T03:44:22.350Z,16.70
2017-07-18T03:46:50.575Z,16.80
2017-07-18T03:49:18.814Z,16.80
2017-07-18T03:51:47.094Z,16.80
2017-07-18T03:54:15.336Z,16.90
2017-07-18T03:56:43.550Z,16.90
2017-07-18T03:59:11.905Z,17.00
2017-07-18T04:01:40.159Z,17.10
2017-07-18T04:04:08.394Z,17.10
2017-07-18T04:06:36.672Z,17.20
2017-07-18T04:09:04.878Z,17.20
2017-07-18T04:11:33.141Z,17.30
2017-07-18T04:14:01.501Z,17.30
2017-07-18T04:16:29.858Z,17.30
2017-07-18T04:18:58.085Z,17.40
2017-07-18T04:21:26.307Z,17.40
2017-07-18T04:23:54.816Z,17.40
2017-07-18T04:26:23.074Z,17.50
2017-07-18T04:28:51.564Z,17.60
2017-07-18T04:31:19.850Z,17.60
2017-07-18T04:33:48.124Z,17.60
2017-07-18T04:36:16.395Z,17.70
2017-07-18T04:38:44.933Z,17.80
2017-07-18T04:41:13.161Z,17.90
2017-07-18T04:43:41.676Z,18.00
2017-07-18T04:46:09.914Z,18.00
2017-07-18T04:48:38.167Z,18.20
2017-07-18T04:51:06.361Z,18.30
2017-07-18T04:53:34.638Z,18.40
2017-07-18T04:56:02.843Z,18.50
2017-07-18T04:58:32.008Z,18.50
2017-07-18T05:01:00.226Z,18.70
2017-07-18T05:03:28.475Z,18.80
2017-07-18T05:05:56.693Z,18.90
2017-07-18T05:08:25.118Z,19.00
2017-07-18T05:10:53.384Z,19.10
2017-07-18T05:13:21.939Z,19.10
2017-07-18T05:15:50.258Z,19.20
2017-07-18T05:18:18.486Z,19.30
2017-07-18T05:20:46.709Z,19.50
2017-07-18T05:23:15.158Z,19.80
2017-07-18T05:25:43.805Z,20.10
2017-07-18T05:28:12.002Z,20.30
2017-07-18T05:30:40.249Z,20.50
2017-07-18T05:33:08.478Z,20.80
2017-07-18T05:35:36.708Z,20.90
2017-07-18T05:38:04.950Z,21.10
2017-07-18T05:40:33.165Z,21.20
2017-07-18T05:43:01.554Z,21.20
2017-07-18T05:45:29.793Z,21.30
2017-07-18T05:47:58.786Z,21.60
2017-07-18T05:50:27.030Z,21.60
2017-07-18T05:52:55.254Z,22.70
2017-07-18T05:55:23.548Z,24.20
2017-07-18T05:57:52.515Z,27.20
2017-07-18T06:00:20.752Z,27.20
2017-07-18T06:02:48.965Z,28.50
2017-07-18T06:05:17.198Z,29.90
2017-07-18T06:07:45.425Z,30.60
2017-07-18T06:10:13.645Z,30.90
2017-07-18T06:12:41.896Z,31.60
2017-07-18T06:15:10.913Z,32.90
2017-07-18T06:17:39.148Z,32.80
2017-07-18T06:20:07.373Z,33.90
2017-07-18T06:22:35.700Z,34.50
2017-07-18T06:25:04.138Z,34.70
2017-07-18T06:27:32.374Z,35.10
2017-07-18T06:30:01.553Z,35.70
2017-07-18T06:32:29.794Z,35.70
2017-07-18T06:34:58.013Z,36.10
2017-07-18T06:37:26.988Z,37.10
2017-07-18T06:39:55.230Z,37.00
2017-07-18T06:42:23.459Z,37.10
2017-07-18T06:44:52.478Z,38.20
2017-07-18T06:47:20.685Z,38.20
2017-07-18T06:49:48.884Z,38.30
2017-07-18T06:52:17.095Z,38.30
2017-07-18T06:54:45.652Z,37.80
2017-07-18T06:57:13.857Z,37.40
2017-07-18T06:59:42.053Z,37.40
2017-07-18T07:02:10.330Z,37.20
2017-07-18T07:04:38.539Z,37.30
2017-07-18T07:07:06.868Z,37.70
2017-07-18T07:09:35.833Z,36.90
2017-07-18T07:12:04.067Z,36.90
2017-07-18T07:14:32.290Z,36.90
2017-07-18T07:17:00.615Z,37.90
2017-07-18T07:19:29.007Z,39.00
2017-07-18T07:21:57.919Z,39.10
2017-07-18T07:24:26.292Z,39.60
2017-07-18T07:26:54.704Z,39.80
2017-07-18T07:29:23.403Z,40.00
2017-07-18T07:31:52.632Z,38.90
2017-07-18T07:34:21.415Z,38.90
2017-07-18T07:36:49.874Z,39.80
2017-07-18T07:39:19.270Z,40.10
2017-07-18T07:41:47.661Z,40.10
2017-07-18T07:44:16.656Z,40.40
2017-07-18T07:46:45.020Z,40.40
2017-07-18T07:49:14.010Z,39.20
2017-07-18T07:51:42.210Z,39.20
2017-07-18T07:54:11.225Z,38.30
2017-07-18T07:56:39.428Z,38.30
2017-07-18T07:59:07.638Z,39.30
2017-07-18T08:01:36.630Z,40.30
2017-07-18T08:04:04.839Z,40.30
2017-07-18T08:06:33.200Z,40.10
2017-07-18T08:09:01.431Z,40.60
2017-07-18T08:11:29.639Z,41.20
2017-07-18T08:13:57.841Z,41.80
2017-07-18T08:16:26.061Z,42.90
2017-07-18T08:18:54.284Z,43.20
2017-07-18T08:21:23.268Z,42.10
2017-07-18T08:23:51.505Z,42.10
2017-07-18T08:26:19.709Z,42.30
2017-07-18T08:28:47.945Z,42.80
2017-07-18T08:31:16.164Z,43.10
2017-07-18T08:33:44.615Z,42.70
2017-07-18T08:36:12.821Z,42.40
2017-07-18T08:38:41.042Z,42.60
2017-07-18T08:41:09.304Z,42.40
2017-07-18T08:43:37.541Z,42.00
2017-07-18T08:46:05.746Z,41.70
2017-07-18T08:48:34.763Z,42.60
2017-07-18T08:51:03.055Z,42.50
2017-07-18T08:53:31.252Z,42.90
2017-07-18T08:55:59.489Z,42.00
2017-07-18T08:58:27.707Z,42.10
2017-07-18T09:00:55.933Z,42.60
2017-07-18T09:03:24.181Z,43.00
2017-07-18T09:05:52.683Z,42.70
2017-07-18T09:08:20.925Z,42.70
2017-07-18T09:10:49.150Z,43.40
2017-07-18T09:13:18.137Z,42.60
2017-07-18T09:15:46.514Z,42.50
2017-07-18T09:18:15.496Z,42.70
2017-07-18T09:20:43.768Z,42.70
2017-07-18T09:23:11.984Z,42.70
2017-07-18T09:25:40.236Z,42.70
2017-07-18T09:28:09.243Z,41.20
2017-07-18T09:30:37.473Z,41.20
2017-07-18T09:33:05.701Z,41.80
2017-07-18T09:35:33.933Z,41.40
2017-07-18T09:38:02.144Z,41.20
2017-07-18T09:40:30.371Z,41.90
2017-07-18T09:42:58.645Z,41.60
2017-07-18T09:45:26.900Z,41.60
2017-07-18T09:47:55.182Z,41.30
2017-07-18T09:50:23.393Z,41.60
2017-07-18T09:52:51.632Z,41.80
2017-07-18T09:55:19.825Z,41.40
2017-07-18T09:57:48.102Z,42.40
2017-07-18T10:00:16.325Z,43.20
2017-07-18T10:02:45.324Z,43.90
2017-07-18T10:05:13.689Z,43.90
2017-07-18T10:07:41.996Z,43.80
2017-07-18T10:10:10.269Z,43.40
2017-07-18T10:12:38.519Z,43.70
2017-07-18T10:15:06.745Z,43.00
2017-07-18T10:17:35.033Z,43.30
2017-07-18T10:20:03.253Z,43.00
2017-07-18T10:22:31.500Z,42.40
2017-07-18T10:24:59.713Z,42.90
2017-07-18T10:27:28.017Z,42.50
2017-07-18T10:29:56.244Z,41.90
2017-07-18T10:32:25.572Z,40.00
2017-07-18T10:34:54.554Z,39.70
2017-07-18T10:37:22.773Z,39.60
2017-07-18T10:39:50.968Z,40.10
2017-07-18T10:42:19.370Z,40.70
2017-07-18T10:44:47.616Z,41.10
2017-07-18T10:47:16.378Z,41.00
2017-07-18T10:49:44.633Z,40.30
2017-07-18T10:52:12.884Z,39.90
2017-07-18T10:54:41.105Z,39.60
2017-07-18T10:57:09.306Z,38.50
2017-07-18T10:59:37.534Z,38.20
2017-07-18T11:02:05.781Z,38.30
2017-07-18T11:04:34.040Z,38.30
2017-07-18T11:07:02.249Z,38.60
2017-07-18T11:09:30.624Z,39.20
2017-07-18T11:11:58.940Z,39.40
2017-07-18T11:14:27.175Z,38.70
2017-07-18T11:16:55.400Z,38.20
2017-07-18T11:19:23.634Z,37.20
2017-07-18T11:21:53.476Z,35.00
2017-07-18T11:24:21.697Z,34.90
2017-07-18T11:26:50.208Z,33.90
2017-07-18T11:29:18.423Z,33.10
2017-07-18T11:31:46.627Z,32.60
2017-07-18T11:34:14.904Z,32.10
2017-07-18T11:36:43.234Z,31.60
2017-07-18T11:39:12.225Z,31.40
2017-07-18T11:41:40.433Z,31.30
2017-07-18T11:44:08.905Z,31.50
2017-07-18T11:46:37.900Z,31.20
2017-07-18T11:49:06.185Z,31.20
2017-07-18T11:51:34.391Z,31.40
2017-07-18T11:54:02.622Z,31.40
2017-07-18T11:56:31.624Z,31.20
2017-07-18T11:59:00.092Z,31.30
2017-07-18T12:01:28.485Z,31.20
2017-07-18T12:03:57.462Z,31.40
2017-07-18T12:06:25.692Z,31.40
2017-07-18T12:08:53.897Z,31.40
2017-07-18T12:11:22.135Z,31.50
2017-07-18T12:13:50.332Z,31.80
2017-07-18T12:16:19.018Z,31.90
2017-07-18T12:18:59.112Z,32.00
2017-07-18T12:21:27.911Z,32.10
2017-07-18T12:23:56.133Z,31.90
2017-07-18T12:26:24.377Z,31.80
2017-07-18T12:28:52.608Z,31.80
2017-07-18T12:31:21.272Z,31.60
2017-07-18T12:33:49.632Z,31.50
2017-07-18T12:36:17.893Z,31.50
2017-07-18T12:38:46.264Z,31.50
2017-07-18T12:41:14.479Z,31.80
2017-07-18T12:43:42.928Z,31.90
2017-07-18T12:46:11.937Z,32.10
2017-07-18T12:48:40.144Z,32.10
2017-07-18T12:51:08.436Z,32.20
2017-07-18T12:53:36.668Z,32.20
2017-07-18T12:56:04.901Z,32.20
2017-07-18T12:58:33.121Z,32.00
2017-07-18T13:01:01.339Z,31.60
2017-07-18T13:03:29.563Z,31.40
2017-07-18T13:05:57.960Z,31.20
2017-07-18T13:08:26.350Z,31.30
2017-07-18T13:10:55.097Z,31.60
2017-07-18T13:13:23.282Z,31.90
2017-07-18T13:15:52.265Z,32.10
2017-07-18T13:18:20.502Z,32.10
2017-07-18T13:20:48.718Z,32.30
2017-07-18T13:23:17.722Z,32.70
2017-07-18T13:25:45.989Z,32.70
2017-07-18T13:28:14.193Z,33.00
2017-07-18T13:30:42.430Z,32.90
2017-07-18T13:33:10.628Z,33.10
2017-07-18T13:35:38.836Z,32.80
2017-07-18T13:38:07.107Z,32.40
2017-07-18T13:40:35.414Z,32.10
2017-07-18T13:43:03.650Z,32.20
2017-07-18T13:45:31.893Z,32.50
2017-07-18T13:48:00.125Z,32.50
2017-07-18T13:50:28.462Z,32.30
2017-07-18T13:52:57.430Z,32.00
2017-07-18T13:55:25.680Z,32.00
2017-07-18T13:57:53.916Z,32.00
2017-07-18T14:00:23.117Z,32.60
2017-07-18T14:02:51.509Z,32.60
2017-07-18T14:05:19.710Z,32.90
2017-07-18T14:07:48.089Z,33.10
2017-07-18T14:10:16.311Z,33.10
2017-07-18T14:12:44.529Z,33.00
2017-07-18T14:15:12.763Z,33.10
2017-07-18T14:17:40.990Z,33.00
2017-07-18T14:20:09.218Z,32.80
2017-07-18T14:22:38.215Z,32.60
2017-07-18T14:25:06.449Z,32.50
2017-07-18T14:27:34.921Z,32.40
2017-07-18T14:30:03.146Z,32.40
2017-07-18T14:32:31.457Z,32.50
2017-07-18T14:34:59.692Z,32.50
2017-07-18T14:37:28.036Z,32.30
2017-07-18T14:39:56.782Z,32.20
2017-07-18T14:42:25.003Z,32.30
2017-07-18T14:44:53.328Z,32.20
2017-07-18T14:47:21.517Z,32.00
2017-07-18T14:49:49.922Z,32.00
2017-07-18T14:52:18.126Z,31.90
2017-07-18T14:54:46.351Z,31.90
2017-07-18T14:57:15.327Z,32.10
2017-07-18T14:59:43.552Z,32.10
2017-07-18T15:02:11.802Z,32.20
2017-07-18T15:04:40.145Z,32.30
2017-07-18T15:07:08.370Z,32.40
2017-07-18T15:09:36.585Z,32.50
2017-07-18T15:12:04.814Z,32.40
2017-07-18T15:14:33.079Z,32.50
2017-07-18T15:17:01.273Z,32.60
2017-07-18T15:19:29.524Z,32.60
2017-07-18T15:21:57.828Z,32.60
2017-07-18T15:24:26.085Z,32.70
2017-07-18T15:26:54.473Z,32.70
2017-07-18T15:29:22.697Z,32.70
2017-07-18T15:31:50.928Z,32.60
2017-07-18T15:34:19.970Z,32.50
2017-07-18T15:36:48.193Z,32.50
2017-07-18T15:39:16.423Z,32.60
2017-07-18T15:41:44.638Z,32.60
2017-07-18T15:44:13.632Z,32.80
2017-07-18T15:46:41.842Z,32.80
2017-07-18T15:49:10.318Z,32.60
2017-07-18T15:51:38.528Z,32.50
2017-07-18T15:54:06.936Z,32.40
2017-07-18T15:56:35.173Z,32.40
2017-07-18T15:59:03.429Z,32.40
2017-07-18T16:01:31.661Z,32.40
2017-07-18T16:04:00.063Z,32.20
2017-07-18T16:06:28.282Z,32.00
2017-07-18T16:08:56.504Z,32.00
2017-07-18T16:11:24.785Z,32.00
2017-07-18T16:13:53.781Z,31.90
2017-07-18T16:16:21.982Z,31.90
2017-07-18T16:18:50.229Z,31.70
2017-07-18T16:21:18.455Z,31.70
2017-07-18T16:23:46.670Z,31.60
2017-07-18T16:26:14.987Z,31.70
2017-07-18T16:28:43.275Z,31.70
2017-07-18T16:31:11.685Z,31.70
2017-07-18T16:33:40.062Z,31.90
2017-07-18T16:36:08.260Z,32.00
2017-07-18T16:38:36.504Z,32.00
2017-07-18T16:41:04.712Z,32.00
2017-07-18T16:43:32.933Z,32.10
2017-07-18T16:46:01.314Z,32.10
2017-07-18T16:48:30.484Z,31.70
2017-07-18T16:50:58.661Z,31.70
2017-07-18T16:53:26.951Z,31.70
2017-07-18T16:55:55.210Z,31.90
2017-07-18T16:58:23.430Z,31.70
2017-07-18T17:00:51.659Z,31.80
2017-07-18T17:03:19.976Z,31.80
2017-07-18T17:05:50.620Z,31.80
2017-07-18T17:08:18.885Z,31.60
2017-07-18T17:10:47.182Z,31.50
2017-07-18T17:13:15.391Z,31.40
2017-07-18T17:15:43.714Z,31.40
2017-07-18T17:18:11.987Z,31.30
2017-07-18T17:20:40.219Z,31.00
2017-07-18T17:23:08.421Z,30.90
2017-07-18T17:25:36.664Z,30.70
2017-07-18T17:28:04.909Z,30.70
2017-07-18T17:30:33.121Z,30.50
2017-07-18T17:33:01.545Z,30.40
2017-07-18T17:35:29.797Z,30.30
2017-07-18T17:37:58.026Z,30.20
2017-07-18T17:40:26.431Z,30.10
2017-07-18T17:42:54.678Z,29.80
2017-07-18T17:45:23.181Z,29.60
2017-07-18T17:47:51.573Z,29.30
2017-07-18T17:50:20.349Z,29.20
2017-07-18T17:52:48.704Z,29.00
2017-07-18T17:55:17.370Z,28.70
2017-07-18T17:57:45.550Z,28.40
2017-07-18T18:00:14.554Z,28.00
2017-07-18T18:02:43.025Z,28.00
2017-07-18T18:05:12.230Z,27.80
2017-07-18T18:07:40.438Z,27.70
2017-07-18T18:10:08.678Z,27.60
2017-07-18T18:12:37.657Z,27.00
2017-07-18T18:15:05.887Z,27.00
2017-07-18T18:17:34.377Z,26.90
2017-07-18T18:20:02.600Z,26.80
2017-07-18T18:22:31.614Z,26.30
2017-07-18T18:24:59.855Z,26.30
2017-07-18T18:27:28.105Z,26.20
2017-07-18T18:29:56.333Z,26.10
2017-07-18T18:32:24.537Z,26.10
2017-07-18T18:34:52.760Z,26.10
2017-07-18T18:37:21.049Z,25.90
2017-07-18T18:39:49.423Z,25.80
2017-07-18T18:42:18.010Z,25.80
2017-07-18T18:44:46.244Z,25.80
2017-07-18T18:47:14.468Z,25.80
2017-07-18T18:49:42.688Z,25.60
2017-07-18T18:52:11.216Z,25.50
2017-07-18T18:54:39.486Z,25.40
2017-07-18T18:57:07.688Z,25.40
2017-07-18T18:59:36.777Z,25.20
2017-07-18T19:02:05.774Z,25.10
2017-07-18T19:04:33.988Z,25.10
2017-07-18T19:07:02.235Z,25.10
2017-07-18T19:09:30.449Z,25.00
2017-07-18T19:11:58.853Z,24.90
2017-07-18T19:14:27.260Z,24.90
2017-07-18T19:16:55.478Z,24.80
2017-07-18T19:19:23.935Z,24.70
2017-07-18T19:21:52.180Z,24.60
2017-07-18T19:24:20.557Z,24.50
2017-07-18T19:26:48.798Z,24.50
2017-07-18T19:29:17.016Z,24.40
2017-07-18T19:31:45.280Z,24.30
2017-07-18T19:34:13.485Z,24.20
2017-07-18T19:36:42.489Z,24.00
2017-07-18T19:39:10.925Z,24.00
2017-07-18T19:41:39.390Z,24.00
2017-07-18T19:44:07.681Z,23.80
2017-07-18T19:46:35.929Z,23.70
2017-07-18T19:49:04.481Z,23.60
2017-07-18T19:51:32.748Z,23.50
2017-07-18T19:54:01.192Z,23.40
2017-07-18T19:56:29.517Z,23.40
2017-07-18T19:58:57.690Z,23.40
2017-07-18T20:01:25.969Z,23.30
2017-07-18T20:03:54.211Z,23.20
2017-07-18T20:06:22.580Z,23.10
2017-07-18T20:08:50.836Z,23.10
2017-07-18T20:11:19.181Z,23.00
2017-07-18T20:13:47.418Z,22.90
2017-07-18T20:16:16.166Z,22.80
2017-07-18T20:18:44.390Z,22.70
2017-07-18T20:21:12.662Z,22.70
2017-07-18T20:23:44.886Z,22.60
2017-07-18T20:26:13.172Z,22.60
2017-07-18T20:28:41.455Z,22.50
2017-07-18T20:31:09.826Z,22.50
2017-07-18T20:33:38.858Z,22.30
2017-07-18T20:36:07.088Z,22.20
2017-07-18T20:38:35.396Z,22.20
2017-07-18T20:41:03.990Z,22.20
2017-07-18T20:43:32.943Z,22.10
2017-07-18T20:46:01.455Z,22.10
2017-07-18T20:48:29.695Z,22.10
2017-07-18T20:50:58.022Z,22.10
2017-07-18T20:53:26.360Z,22.00
2017-07-18T20:55:55.368Z,21.90
2017-07-18T20:58:23.787Z,21.90
2017-07-18T21:00:52.037Z,21.90
2017-07-18T21:03:20.337Z,21.90
2017-07-18T21:05:48.650Z,21.90
2017-07-18T21:08:16.840Z,21.80
2017-07-18T21:10:45.929Z,21.70
2017-07-18T21:13:14.169Z,21.70
2017-07-18T21:15:42.405Z,21.70
2017-07-18T21:18:10.638Z,21.70
2017-07-18T21:20:38.855Z,21.70
2017-07-18T21:23:07.084Z,21.70
2017-07-18T21:25:35.316Z,21.70
2017-07-18T21:28:04.290Z,21.60
2017-07-18T21:30:32.538Z,21.50
2017-07-18T21:33:00.802Z,21.50
2017-07-18T21:35:29.098Z,21.50
2017-07-18T21:37:57.288Z,21.50
2017-07-18T21:40:25.505Z,21.50
2017-07-18T21:42:53.800Z,21.40
2017-07-18T21:45:22.056Z,21.40
2017-07-18T21:47:51.060Z,21.40
2017-07-18T21:50:19.553Z,21.40
2017-07-18T21:52:48.060Z,21.40
2017-07-18T21:55:16.282Z,21.40
2017-07-18T21:57:44.876Z,21.40
2017-07-18T22:00:13.086Z,21.40
2017-07-18T22:02:41.373Z,21.40
2017-07-18T22:05:09.617Z,21.40
2017-07-18T22:07:37.919Z,21.40
2017-07-18T22:10:06.417Z,21.40
2017-07-18T22:12:34.637Z,21.30
2017-07-18T22:15:02.857Z,21.30
2017-07-18T22:17:31.085Z,21.30
2017-07-18T22:19:59.325Z,21.30
2017-07-18T22:22:27.540Z,21.30
2017-07-18T22:24:55.786Z,21.30
2017-07-18T22:27:24.006Z,21.20
2017-07-18T22:29:52.256Z,21.20
2017-07-18T22:32:20.473Z,21.20
2017-07-18T22:34:49.473Z,21.20
2017-07-18T22:37:17.717Z,21.10
2017-07-18T22:39:45.926Z,21.20
2017-07-18T22:42:14.282Z,21.10
2017-07-18T22:44:42.973Z,21.00
2017-07-18T22:47:11.165Z,21.10
2017-07-18T22:49:39.391Z,21.10
2017-07-18T22:52:07.928Z,21.00
2017-07-18T22:54:36.220Z,21.00
2017-07-18T22:57:04.638Z,21.00
2017-07-18T22:59:32.869Z,21.00
2017-07-18T23:02:01.117Z,20.90
2017-07-18T23:04:29.548Z,20.90
2017-07-18T23:06:57.814Z,20.90
2017-07-18T23:09:26.020Z,20.90
2017-07-18T23:11:54.236Z,20.80
2017-07-18T23:14:22.470Z,20.80
2017-07-18T23:16:50.681Z,20.80
2017-07-18T23:19:18.997Z,20.80
2017-07-18T23:21:47.205Z,20.80
2017-07-18T23:24:15.425Z,20.80
2017-07-18T23:26:43.652Z,20.70
2017-07-18T23:29:11.904Z,20.70
2017-07-18T23:31:40.145Z,20.70
2017-07-18T23:34:09.141Z,20.70
2017-07-18T23:36:38.094Z,20.70
2017-07-18T23:39:06.510Z,20.60
2017-07-18T23:41:34.773Z,20.60
2017-07-18T23:44:03.200Z,20.60
2017-07-18T23:46:31.462Z,20.60
2017-07-18T23:48:59.700Z,20.50
2017-07-18T23:51:27.912Z,20.50
2017-07-18T23:53:56.166Z,20.50
2017-07-18T23:56:24.628Z,20.50
2017-07-18T23:58:52.853Z,20.50
